createdAt,value
2018-06-28T00:00:26.471Z,62.80
2018-06-28T00:04:30.011Z,63.60
2018-06-28T00:08:33.511Z,64.50
2018-06-28T00:12:43.164Z,64.00
2018-06-28T00:16:46.850Z,64.80
2018-06-28T00:20:50.699Z,64.50
2018-06-28T00:25:02.098Z,64.20
2018-06-28T00:29:05.749Z,64.20
2018-06-28T00:33:09.487Z,64.60
2018-06-28T00:37:20.499Z,65.30
2018-06-28T00:41:24.126Z,65.90
2018-06-28T00:45:27.636Z,66.00
2018-06-28T00:49:31.551Z,66.80
2018-06-28T00:53:35.163Z,66.70
2018-06-28T00:57:39.472Z,66.60
2018-06-28T01:05:46.607Z,67.30
2018-06-28T01:09:50.275Z,66.30
2018-06-28T01:13:53.810Z,66.80
2018-06-28T01:17:58.081Z,67.50
2018-06-28T01:22:02.072Z,68.00
2018-06-28T01:26:06.016Z,68.10
2018-06-28T01:30:09.624Z,68.50
2018-06-28T01:34:13.238Z,67.70
2018-06-28T01:38:17.647Z,67.70
2018-06-28T01:42:45.300Z,68.20
2018-06-28T01:46:49.786Z,68.80
2018-06-28T01:50:53.796Z,68.50
2018-06-28T01:55:15.472Z,69.50
2018-06-28T01:59:19.142Z,69.80
2018-06-28T02:03:22.752Z,68.80
2018-06-28T02:07:27.089Z,70.00
2018-06-28T02:11:30.702Z,68.30
2018-06-28T02:15:35.519Z,68.50
2018-06-28T02:19:39.054Z,69.50
2018-06-28T02:23:42.619Z,69.70
2018-06-28T02:27:48.532Z,70.30
2018-06-28T02:31:52.133Z,69.40
2018-06-28T02:35:56.401Z,69.00
2018-06-28T02:39:59.982Z,69.30
2018-06-28T02:44:03.671Z,70.30
2018-06-28T02:48:07.355Z,69.60
2018-06-28T02:52:10.930Z,70.20
2018-06-28T02:56:15.711Z,70.90
2018-06-28T03:00:19.323Z,71.10
2018-06-28T03:04:23.303Z,69.60
2018-06-28T03:08:30.484Z,69.20
2018-06-28T03:12:34.646Z,70.00
2018-06-28T03:16:38.208Z,71.00
2018-06-28T03:20:41.815Z,71.60
2018-06-28T03:24:45.365Z,72.00
2018-06-28T03:28:50.364Z,72.00
2018-06-28T03:32:53.954Z,70.00
2018-06-28T03:37:01.586Z,70.80
2018-06-28T03:41:05.177Z,71.50
2018-06-28T03:45:09.614Z,71.00
2018-06-28T03:49:13.348Z,71.40
2018-06-28T03:53:17.031Z,71.80
2018-06-28T03:57:37.160Z,70.70
2018-06-28T04:01:40.657Z,70.30
2018-06-28T04:05:44.729Z,72.00
2018-06-28T04:09:48.511Z,72.00
2018-06-28T04:13:52.218Z,72.00
2018-06-28T04:17:55.747Z,73.00
2018-06-28T04:21:59.242Z,72.70
2018-06-28T04:26:03.360Z,72.90
2018-06-28T04:34:12.750Z,72.40
2018-06-28T04:38:16.532Z,71.20
2018-06-28T04:46:49.099Z,71.60
2018-06-28T04:50:55.775Z,72.20
2018-06-28T04:55:01.144Z,72.60
2018-06-28T04:59:04.926Z,72.40
2018-06-28T05:03:08.753Z,72.80
2018-06-28T05:07:12.320Z,71.90
2018-06-28T05:11:17.256Z,72.00
2018-06-28T05:15:21.741Z,72.90
2018-06-28T05:19:25.305Z,72.70
2018-06-28T05:23:31.030Z,73.10
2018-06-28T05:27:35.363Z,73.40
2018-06-28T05:31:44.635Z,73.50
2018-06-28T05:35:48.235Z,71.70
2018-06-28T05:39:51.814Z,71.20
2018-06-28T05:43:56.186Z,72.90
2018-06-28T05:47:59.804Z,73.70
2018-06-28T05:52:03.419Z,73.30
2018-06-28T05:56:07.071Z,73.50
2018-06-28T06:00:10.599Z,71.30
2018-06-28T06:04:16.171Z,68.80
2018-06-28T06:08:19.696Z,64.60
2018-06-28T06:12:23.337Z,63.90
2018-06-28T06:16:28.785Z,62.10
2018-06-28T06:20:32.463Z,62.40
2018-06-28T06:24:35.975Z,61.10
2018-06-28T06:28:39.603Z,60.70
2018-06-28T06:32:43.122Z,60.20
2018-06-28T06:36:49.191Z,59.50
2018-06-28T06:40:52.699Z,57.60
2018-06-28T06:45:09.878Z,54.60
2018-06-28T06:49:13.431Z,54.60
2018-06-28T06:53:17.599Z,53.00
2018-06-28T06:57:25.003Z,51.90
2018-06-28T07:01:28.584Z,51.30
2018-06-28T07:05:32.099Z,46.90
2018-06-28T07:09:35.965Z,45.80
2018-06-28T07:13:43.169Z,45.30
2018-06-28T07:17:46.751Z,43.80
2018-06-28T07:21:50.407Z,44.10
2018-06-28T07:25:54.018Z,43.90
2018-06-28T07:29:57.509Z,45.90
2018-06-28T07:34:01.140Z,43.10
2018-06-28T07:38:05.961Z,42.60
2018-06-28T07:42:20.865Z,42.00
2018-06-28T07:46:24.536Z,42.40
2018-06-28T07:50:28.261Z,42.90
2018-06-28T07:54:31.748Z,44.10
2018-06-28T07:58:35.414Z,43.80
2018-06-28T08:02:39.121Z,42.30
2018-06-28T08:06:42.905Z,42.20
2018-06-28T08:10:46.601Z,42.50
2018-06-28T08:14:50.354Z,41.90
2018-06-28T08:18:54.207Z,42.50
2018-06-28T08:22:57.763Z,41.30
2018-06-28T08:27:01.388Z,42.30
2018-06-28T08:31:04.974Z,43.90
2018-06-28T08:35:08.683Z,40.30
2018-06-28T08:39:12.310Z,43.70
2018-06-28T08:47:19.537Z,41.40
2018-06-28T08:51:23.770Z,40.50
2018-06-28T08:55:27.345Z,39.70
2018-06-28T09:03:40.647Z,42.70
2018-06-28T09:07:44.332Z,40.80
2018-06-28T09:11:48.357Z,41.00
2018-06-28T09:15:52.033Z,39.80
2018-06-28T09:19:59.020Z,39.10
2018-06-28T09:24:03.323Z,39.10
2018-06-28T09:28:08.382Z,41.00
2018-06-28T09:32:11.855Z,40.00
2018-06-28T09:36:16.506Z,40.20
2018-06-28T09:40:20.103Z,40.80
2018-06-28T09:44:23.706Z,41.80
2018-06-28T09:48:27.351Z,41.10
2018-06-28T09:52:31.979Z,40.60
2018-06-28T09:56:35.528Z,43.40
2018-06-28T10:00:46.568Z,41.80
2018-06-28T10:04:51.327Z,38.90
2018-06-28T10:08:54.930Z,39.70
2018-06-28T10:12:59.090Z,42.60
2018-06-28T10:17:02.830Z,39.60
2018-06-28T10:21:06.477Z,42.20
2018-06-28T10:25:18.954Z,42.00
2018-06-28T10:29:24.514Z,43.00
2018-06-28T10:33:31.965Z,42.70
2018-06-28T10:37:35.551Z,40.60
2018-06-28T10:41:39.243Z,41.60
2018-06-28T10:45:42.885Z,39.80
2018-06-28T10:49:46.663Z,42.20
2018-06-28T10:53:50.582Z,40.40
2018-06-28T10:58:18.036Z,41.90
2018-06-28T11:02:21.904Z,39.70
2018-06-28T11:06:25.613Z,41.50
2018-06-28T11:10:29.243Z,41.20
2018-06-28T11:14:32.823Z,40.70
2018-06-28T11:18:36.444Z,40.20
2018-06-28T11:22:39.970Z,40.60
2018-06-28T11:26:43.512Z,41.90
2018-06-28T11:30:47.349Z,42.90
2018-06-28T11:34:50.985Z,42.90
2018-06-28T11:38:54.627Z,43.20
2018-06-28T11:42:58.231Z,43.00
2018-06-28T11:47:01.832Z,42.80
2018-06-28T11:51:05.398Z,42.10
2018-06-28T11:55:08.950Z,40.90
2018-06-28T11:59:22.523Z,40.70
2018-06-28T12:03:27.248Z,42.50
2018-06-28T12:07:30.738Z,42.80
2018-06-28T12:11:34.311Z,43.30
2018-06-28T12:15:38.794Z,44.90
2018-06-28T12:19:42.347Z,42.90
2018-06-28T12:23:45.874Z,42.40
2018-06-28T12:27:49.848Z,42.40
2018-06-28T12:31:54.320Z,42.70
2018-06-28T12:36:02.862Z,42.20
2018-06-28T12:40:06.622Z,43.00
2018-06-28T12:44:10.245Z,42.00
2018-06-28T12:48:15.347Z,45.40
2018-06-28T12:52:42.097Z,42.50
2018-06-28T12:56:51.343Z,48.00
2018-06-28T13:00:54.895Z,43.10
2018-06-28T13:04:58.454Z,42.00
2018-06-28T13:09:02.852Z,42.20
2018-06-28T13:13:06.599Z,42.30
2018-06-28T13:17:17.447Z,42.50
2018-06-28T13:21:21.360Z,41.80
2018-06-28T13:25:25.082Z,44.60
2018-06-28T13:29:28.728Z,42.80
2018-06-28T13:33:32.320Z,45.90
2018-06-28T13:37:35.969Z,51.10
2018-06-28T13:41:40.644Z,52.60
2018-06-28T13:45:48.043Z,47.60
2018-06-28T13:49:51.738Z,44.00
2018-06-28T13:53:55.438Z,44.90
2018-06-28T13:57:59.072Z,43.70
2018-06-28T14:02:02.722Z,47.60
2018-06-28T14:06:07.551Z,50.20
2018-06-28T14:10:11.359Z,47.90
2018-06-28T14:14:15.244Z,46.50
2018-06-28T14:18:20.900Z,43.20
2018-06-28T14:26:27.855Z,45.30
2018-06-28T14:30:31.501Z,44.30
2018-06-28T14:34:36.799Z,43.00
2018-06-28T14:38:40.376Z,45.60
2018-06-28T14:42:43.924Z,43.40
2018-06-28T14:46:47.661Z,50.90
2018-06-28T14:50:51.179Z,51.50
2018-06-28T14:58:57.859Z,44.50
2018-06-28T15:03:01.752Z,45.00
2018-06-28T15:07:06.524Z,43.70
2018-06-28T15:15:13.416Z,45.90
2018-06-28T15:19:17.304Z,45.00
2018-06-28T15:23:20.897Z,43.90
2018-06-28T15:27:24.797Z,45.70
2018-06-28T15:31:28.304Z,45.30
2018-06-28T15:35:31.855Z,44.90
2018-06-28T15:39:35.471Z,45.60
2018-06-28T15:43:39.194Z,44.30
2018-06-28T15:47:42.701Z,45.30
2018-06-28T15:51:46.365Z,44.20
2018-06-28T15:55:49.903Z,47.30
2018-06-28T15:59:53.509Z,43.20
2018-06-28T16:03:57.061Z,45.70
2018-06-28T16:08:00.784Z,48.40
2018-06-28T16:12:04.376Z,50.30
2018-06-28T16:16:15.718Z,44.90
2018-06-28T16:20:19.455Z,46.40
2018-06-28T16:28:33.755Z,47.00
2018-06-28T16:32:42.106Z,45.40
2018-06-28T16:36:46.819Z,43.60
2018-06-28T16:40:51.196Z,42.40
2018-06-28T16:44:54.863Z,43.90
2018-06-28T16:48:58.462Z,44.80
2018-06-28T16:53:02.077Z,45.70
2018-06-28T16:57:06.855Z,46.20
2018-06-28T17:01:10.463Z,50.80
2018-06-28T17:05:14.149Z,50.10
2018-06-28T17:09:18.016Z,48.30
2018-06-28T17:13:21.982Z,47.90
2018-06-28T17:17:25.563Z,46.20
2018-06-28T17:21:29.280Z,44.80
2018-06-28T17:25:33.856Z,44.80
2018-06-28T17:29:39.506Z,52.50
2018-06-28T17:33:43.075Z,50.40
2018-06-28T17:37:46.787Z,47.30
2018-06-28T17:41:50.433Z,47.70
2018-06-28T17:45:54.298Z,48.10
2018-06-28T17:49:57.979Z,46.30
2018-06-28T17:54:01.578Z,46.90
2018-06-28T17:58:06.218Z,47.60
2018-06-28T18:02:13.360Z,46.80
2018-06-28T18:06:20.994Z,47.40
2018-06-28T18:10:24.946Z,46.80
2018-06-28T18:18:37.779Z,47.20
2018-06-28T18:22:41.314Z,47.70
2018-06-28T18:26:44.923Z,48.40
2018-06-28T18:30:48.520Z,49.80
2018-06-28T18:34:53.540Z,48.20
2018-06-28T18:38:57.299Z,47.90
2018-06-28T18:43:07.138Z,49.50
2018-06-28T18:47:21.799Z,52.50
2018-06-28T18:51:25.422Z,52.20
2018-06-28T18:55:32.877Z,50.40
2018-06-28T18:59:36.631Z,49.30
2018-06-28T19:03:48.642Z,51.00
2018-06-28T19:07:52.660Z,50.60
2018-06-28T19:11:56.258Z,49.80
2018-06-28T19:16:05.137Z,49.70
2018-06-28T19:20:10.771Z,50.00
2018-06-28T19:24:14.338Z,50.00
2018-06-28T19:28:17.950Z,50.60
2018-06-28T19:32:26.980Z,51.00
2018-06-28T19:36:34.863Z,53.20
2018-06-28T19:40:44.044Z,50.90
2018-06-28T19:44:53.003Z,51.30
2018-06-28T19:48:57.787Z,52.20
2018-06-28T19:53:07.197Z,52.00
2018-06-28T20:01:19.537Z,56.40
2018-06-28T20:05:23.257Z,57.20
2018-06-28T20:09:26.818Z,57.40
2018-06-28T20:18:03.255Z,57.30
2018-06-28T20:22:06.946Z,59.50
2018-06-28T20:26:19.211Z,57.60
2018-06-28T20:30:28.272Z,58.10
2018-06-28T20:34:31.812Z,60.60
2018-06-28T20:38:35.514Z,59.90
2018-06-28T20:42:42.352Z,57.50
2018-06-28T20:46:46.191Z,60.70
2018-06-28T20:50:50.533Z,60.90
2018-06-28T20:54:56.195Z,59.60
2018-06-28T20:59:00.854Z,59.10
2018-06-28T21:03:05.028Z,61.10
2018-06-28T21:07:08.666Z,61.00
2018-06-28T21:11:12.279Z,62.30
2018-06-28T21:15:15.971Z,61.40
2018-06-28T21:19:19.855Z,61.50
2018-06-28T21:23:23.445Z,61.40
2018-06-28T21:27:44.762Z,63.90
2018-06-28T21:31:53.586Z,62.90
2018-06-28T21:35:59.254Z,60.50
2018-06-28T21:40:03.487Z,64.70
2018-06-28T21:44:07.540Z,64.40
2018-06-28T21:48:11.082Z,62.00
2018-06-28T21:52:17.005Z,61.80
2018-06-28T21:56:20.558Z,64.00
2018-06-28T22:00:32.094Z,63.30
2018-06-28T22:04:35.647Z,64.40
2018-06-28T22:08:41.412Z,63.20
2018-06-28T22:12:44.991Z,58.40
2018-06-28T22:16:48.835Z,59.50
2018-06-28T22:20:52.481Z,59.70
2018-06-28T22:24:56.651Z,61.10
2018-06-28T22:29:07.978Z,60.50
2018-06-28T22:33:11.741Z,62.30
2018-06-28T22:37:15.364Z,59.70
2018-06-28T22:41:19.341Z,61.20
2018-06-28T22:45:22.862Z,58.20
2018-06-28T22:49:26.828Z,58.30
2018-06-28T22:53:30.356Z,59.50
2018-06-28T22:57:35.147Z,58.50
2018-06-28T23:01:38.635Z,57.40
2018-06-28T23:05:42.207Z,57.30
2018-06-28T23:09:45.719Z,57.90
2018-06-28T23:13:52.995Z,57.50
2018-06-28T23:17:56.697Z,58.70
2018-06-28T23:22:00.282Z,57.70
2018-06-28T23:26:03.811Z,57.20
2018-06-28T23:30:07.419Z,57.60
2018-06-28T23:34:18.904Z,57.10
2018-06-28T23:38:22.558Z,62.20
2018-06-28T23:42:26.266Z,58.00
2018-06-28T23:46:29.646Z,62.50
2018-06-28T23:50:33.186Z,60.40
2018-06-28T23:54:36.885Z,59.80
2018-06-28T23:58:40.853Z,58.00
